createdAt,value
2022-08-28T00:00:37.690Z,100973.78
2022-08-28T00:03:05.772Z,100966.00
2022-08-28T00:05:33.840Z,100976.59
2022-08-28T00:08:00.910Z,100977.09
2022-08-28T00:10:29.548Z,100975.91
2022-08-28T00:12:58.043Z,100975.91
2022-08-28T00:15:34.752Z,100978.44
2022-08-28T00:18:03.556Z,100970.00
2022-08-28T00:20:31.632Z,100971.91
2022-08-28T00:23:00.253Z,100974.22
2022-08-28T00:25:29.544Z,100968.25
2022-08-28T00:27:59.671Z,100963.16
2022-08-28T00:30:29.821Z,100967.97
2022-08-28T00:33:00.818Z,100962.78
2022-08-28T00:35:27.779Z,100975.41
2022-08-28T00:37:54.955Z,100975.41
2022-08-28T00:40:28.980Z,100969.06
2022-08-28T00:43:03.991Z,100973.03
2022-08-28T00:45:37.319Z,100984.78
2022-08-28T00:48:06.507Z,100979.06
2022-08-28T00:50:56.750Z,100981.88
2022-08-28T00:53:30.065Z,100975.97
2022-08-28T00:56:06.963Z,100973.78
2022-08-28T00:58:43.135Z,100979.56
2022-08-28T01:01:10.904Z,100983.25
2022-08-28T01:03:37.652Z,100974.31
2022-08-28T01:06:05.548Z,100981.94
2022-08-28T01:08:33.878Z,100972.72
2022-08-28T01:11:03.913Z,100986.97
2022-08-28T01:13:32.428Z,100990.69
2022-08-28T01:16:00.851Z,100994.34
2022-08-28T01:18:27.995Z,100976.28
2022-08-28T01:21:05.456Z,100993.84
2022-08-28T01:23:51.540Z,100989.63
2022-08-28T01:26:18.344Z,100986.59
2022-08-28T01:28:45.440Z,100987.19
2022-08-28T01:31:14.985Z,100991.91
2022-08-28T01:33:42.885Z,100995.44
2022-08-28T01:36:12.036Z,100993.34
2022-08-28T01:38:41.363Z,100987.31
2022-08-28T01:41:08.617Z,101001.97
2022-08-28T01:43:35.309Z,101004.53
2022-08-28T01:46:04.797Z,100997.41
2022-08-28T01:48:35.817Z,101002.09
2022-08-28T01:51:04.613Z,101003.34
2022-08-28T01:53:33.079Z,100999.44
2022-08-28T01:56:02.918Z,101000.91
2022-08-28T01:58:36.034Z,101003.94
2022-08-28T02:01:10.900Z,101006.59
2022-08-28T02:03:38.525Z,101008.78
2022-08-28T02:06:05.886Z,101011.44
2022-08-28T02:08:32.672Z,100998.72
2022-08-28T02:10:59.262Z,101006.25
2022-08-28T02:13:26.042Z,101006.34
2022-08-28T02:15:52.877Z,101008.66
2022-08-28T02:18:19.914Z,101014.38
2022-08-28T02:20:46.541Z,101013.63
2022-08-28T02:23:13.737Z,101013.97
2022-08-28T02:25:40.719Z,101016.69
2022-08-28T02:28:08.990Z,101018.28
2022-08-28T02:30:36.440Z,101019.25
2022-08-28T02:33:03.496Z,101019.38
2022-08-28T02:35:31.090Z,101023.75
2022-08-28T02:37:58.540Z,101021.06
2022-08-28T02:40:27.725Z,101024.78
2022-08-28T02:42:54.551Z,101019.22
2022-08-28T02:45:21.544Z,101017.16
2022-08-28T02:47:51.897Z,101022.56
2022-08-28T02:50:19.778Z,101026.75
2022-08-28T02:52:46.829Z,101023.28
2022-08-28T02:55:15.944Z,101025.34
2022-08-28T02:57:42.894Z,101026.56
2022-08-28T03:00:13.189Z,101025.97
2022-08-28T03:02:41.594Z,101024.59
2022-08-28T03:05:09.734Z,101031.09
2022-08-28T03:07:36.383Z,101034.78
2022-08-28T03:10:04.650Z,101029.22
2022-08-28T03:12:31.853Z,101042.88
2022-08-28T03:14:58.739Z,101038.56
2022-08-28T03:17:25.810Z,101040.25
2022-08-28T03:19:52.596Z,101042.66
2022-08-28T03:22:43.486Z,101041.03
2022-08-28T03:25:11.840Z,101042.84
2022-08-28T03:27:38.704Z,101038.69
2022-08-28T03:30:07.799Z,101039.00
2022-08-28T03:32:34.648Z,101036.03
2022-08-28T03:35:02.390Z,101035.06
2022-08-28T03:37:29.208Z,101028.41
2022-08-28T03:39:55.992Z,101036.53
2022-08-28T03:42:23.321Z,101039.88
2022-08-28T03:44:50.055Z,101042.00
2022-08-28T03:47:17.269Z,101033.34
2022-08-28T03:49:45.355Z,101039.44
2022-08-28T03:52:12.510Z,101039.16
2022-08-28T03:54:39.420Z,101041.25
2022-08-28T03:57:07.582Z,101044.19
2022-08-28T03:59:35.619Z,101030.91
2022-08-28T04:02:02.366Z,101037.94
2022-08-28T04:04:29.019Z,101041.34
2022-08-28T04:06:55.789Z,101041.28
2022-08-28T04:09:22.392Z,101042.28
2022-08-28T04:11:49.021Z,101044.84
2022-08-28T04:14:15.681Z,101046.41
2022-08-28T04:16:42.364Z,101044.13
2022-08-28T04:19:09.238Z,101042.91
2022-08-28T04:21:35.934Z,101054.06
2022-08-28T04:24:04.964Z,101045.91
2022-08-28T04:26:36.600Z,101050.31
2022-08-28T04:29:05.136Z,101047.84
2022-08-28T04:31:33.085Z,101046.69
2022-08-28T04:34:01.975Z,101049.19
2022-08-28T04:36:29.210Z,101056.56
2022-08-28T04:38:58.462Z,101058.28
2022-08-28T04:41:26.208Z,101059.72
2022-08-28T04:43:53.830Z,101070.66
2022-08-28T04:46:20.590Z,101071.41
2022-08-28T04:48:47.230Z,101066.25
2022-08-28T04:51:15.131Z,101061.78
2022-08-28T04:53:43.250Z,101067.28
2022-08-28T04:56:13.476Z,101061.03
2022-08-28T04:58:41.906Z,101059.09
2022-08-28T05:01:12.704Z,101063.25
2022-08-28T05:03:39.976Z,101077.28
2022-08-28T05:06:07.102Z,101069.44
2022-08-28T05:08:34.175Z,101073.09
2022-08-28T05:11:11.198Z,101066.41
2022-08-28T05:13:38.074Z,101071.84
2022-08-28T05:16:04.876Z,101074.97
2022-08-28T05:18:31.860Z,101081.19
2022-08-28T05:20:58.807Z,101080.03
2022-08-28T05:23:26.194Z,101085.75
2022-08-28T05:25:52.825Z,101089.03
2022-08-28T05:28:19.789Z,101090.50
2022-08-28T05:30:46.453Z,101087.84
2022-08-28T05:33:15.116Z,101091.59
2022-08-28T05:35:44.501Z,101087.94
2022-08-28T05:38:13.418Z,101087.22
2022-08-28T05:40:44.791Z,101084.09
2022-08-28T05:43:13.669Z,101086.72
2022-08-28T05:45:40.865Z,101093.09
2022-08-28T05:48:07.939Z,101093.22
2022-08-28T05:50:37.985Z,101107.81
2022-08-28T05:53:04.744Z,101099.94
2022-08-28T05:55:31.491Z,101101.72
2022-08-28T05:58:18.095Z,101106.03
2022-08-28T06:00:44.801Z,101100.47
2022-08-28T06:03:11.441Z,101099.16
2022-08-28T06:05:38.442Z,101109.22
2022-08-28T06:08:05.058Z,101107.91
2022-08-28T06:10:31.812Z,101111.72
2022-08-28T06:12:58.990Z,101117.72
2022-08-28T06:15:26.855Z,101110.63
2022-08-28T06:17:53.639Z,101116.94
2022-08-28T06:20:20.808Z,101112.09
2022-08-28T06:22:50.830Z,101121.09
2022-08-28T06:25:17.396Z,101115.41
2022-08-28T06:27:44.040Z,101113.63
2022-08-28T06:30:11.117Z,101117.88
2022-08-28T06:32:37.731Z,101111.38
2022-08-28T06:35:04.957Z,101124.00
2022-08-28T06:37:31.518Z,101119.44
2022-08-28T06:39:58.387Z,101128.25
2022-08-28T06:42:25.181Z,101131.13
2022-08-28T06:44:51.821Z,101132.63
2022-08-28T06:47:18.426Z,101123.03
2022-08-28T06:49:45.043Z,101125.19
2022-08-28T06:52:11.604Z,101129.06
2022-08-28T06:54:38.367Z,101130.59
2022-08-28T06:57:07.073Z,101128.91
2022-08-28T06:59:33.651Z,101126.03
2022-08-28T07:02:00.382Z,101125.72
2022-08-28T07:04:27.851Z,101135.06
2022-08-28T07:06:55.053Z,101129.78
2022-08-28T07:09:22.700Z,101130.56
2022-08-28T07:11:49.417Z,101134.69
2022-08-28T07:14:16.629Z,101130.25
2022-08-28T07:16:44.338Z,101135.41
2022-08-28T07:19:12.793Z,101148.63
2022-08-28T07:21:43.529Z,101140.25
2022-08-28T07:24:12.789Z,101142.53
2022-08-28T07:26:41.079Z,101147.25
2022-08-28T07:29:11.072Z,101149.34
2022-08-28T07:31:44.180Z,101149.78
2022-08-28T07:34:12.173Z,101147.72
2022-08-28T07:36:39.729Z,101154.81
2022-08-28T07:39:07.291Z,101155.09
2022-08-28T07:41:37.353Z,101147.38
2022-08-28T07:44:22.737Z,101146.09
2022-08-28T07:46:53.746Z,101157.69
2022-08-28T07:49:20.392Z,101154.47
2022-08-28T07:51:47.244Z,101149.97
2022-08-28T07:54:17.664Z,101151.22
2022-08-28T07:56:46.208Z,101151.38
2022-08-28T07:59:17.026Z,101146.38
2022-08-28T08:01:48.096Z,101163.97
2022-08-28T08:04:16.752Z,101157.53
2022-08-28T08:06:44.474Z,101163.22
2022-08-28T08:09:14.566Z,101163.63
2022-08-28T08:11:42.376Z,101164.50
2022-08-28T08:14:09.893Z,101158.31
2022-08-28T08:16:39.651Z,101167.31
2022-08-28T08:19:09.877Z,101174.25
2022-08-28T08:21:37.849Z,101172.75
2022-08-28T08:24:05.530Z,101173.00
2022-08-28T08:26:33.185Z,101180.41
2022-08-28T08:29:00.115Z,101177.47
2022-08-28T08:31:29.871Z,101179.53
2022-08-28T08:33:59.018Z,101178.38
2022-08-28T08:36:27.239Z,101178.84
2022-08-28T08:38:59.480Z,101178.38
2022-08-28T08:41:49.860Z,101180.06
2022-08-28T08:44:33.717Z,101184.31
2022-08-28T08:47:29.052Z,101175.81
2022-08-28T08:50:02.240Z,101167.34
2022-08-28T08:52:44.003Z,101170.16
2022-08-28T08:55:31.935Z,101171.72
2022-08-28T08:58:05.261Z,101169.16
2022-08-28T09:00:39.605Z,101172.88
2022-08-28T09:03:15.029Z,101178.47
2022-08-28T09:05:47.721Z,101174.84
2022-08-28T09:08:29.946Z,101173.47
2022-08-28T09:11:04.123Z,101174.13
2022-08-28T09:13:54.215Z,101179.56
2022-08-28T09:16:29.991Z,101180.44
2022-08-28T09:18:58.989Z,101185.44
2022-08-28T09:21:30.014Z,101179.56
2022-08-28T09:24:05.690Z,101186.00
2022-08-28T09:26:39.326Z,101179.78
2022-08-28T09:29:16.213Z,101184.84
2022-08-28T09:31:44.238Z,101176.94
2022-08-28T09:34:23.654Z,101186.78
2022-08-28T09:36:51.873Z,101189.94
2022-08-28T09:39:19.930Z,101178.66
2022-08-28T09:42:20.498Z,101184.69
2022-08-28T09:45:25.949Z,101179.34
2022-08-28T09:48:00.735Z,101187.44
2022-08-28T09:50:41.542Z,101186.47
2022-08-28T09:53:14.121Z,101186.16
2022-08-28T09:55:57.810Z,101177.03
2022-08-28T09:58:40.297Z,101186.50
2022-08-28T10:01:29.476Z,101172.00
2022-08-28T10:04:25.679Z,101161.97
2022-08-28T10:06:54.830Z,101172.66
2022-08-28T10:09:24.147Z,101167.38
2022-08-28T10:12:02.673Z,101179.84
2022-08-28T10:14:50.185Z,101168.03
2022-08-28T10:17:29.035Z,101168.03
2022-08-28T10:20:21.952Z,101158.38
2022-08-28T10:23:05.096Z,101169.19
2022-08-28T10:25:49.562Z,101166.16
2022-08-28T10:28:35.557Z,101170.22
2022-08-28T10:31:26.734Z,101168.03
2022-08-28T10:34:07.951Z,101168.19
2022-08-28T10:36:35.682Z,101166.22
2022-08-28T10:39:53.177Z,101168.19
2022-08-28T10:43:03.571Z,101163.88
2022-08-28T10:45:33.200Z,101156.78
2022-08-28T10:48:06.887Z,101175.47
2022-08-28T10:50:52.043Z,101163.44
2022-08-28T10:53:35.112Z,101160.84
2022-08-28T10:56:08.575Z,101168.22
2022-08-28T10:58:40.600Z,101165.47
2022-08-28T11:01:14.518Z,101157.88
2022-08-28T11:03:51.581Z,101172.03
2022-08-28T11:06:46.102Z,101165.06
2022-08-28T11:09:29.069Z,101169.50
2022-08-28T11:12:02.424Z,101158.44
2022-08-28T11:14:35.572Z,101163.75
2022-08-28T11:17:27.631Z,101161.91
2022-08-28T11:20:25.359Z,101166.13
2022-08-28T11:23:22.606Z,101159.31
2022-08-28T11:25:55.117Z,101157.19
2022-08-28T11:28:25.576Z,101171.19
2022-08-28T11:30:57.988Z,101163.75
2022-08-28T11:33:37.078Z,101168.84
2022-08-28T11:36:09.640Z,101166.41
2022-08-28T11:38:42.519Z,101172.75
2022-08-28T11:41:12.328Z,101171.00
2022-08-28T11:43:41.906Z,101167.50
2022-08-28T11:46:12.794Z,101170.78
2022-08-28T11:48:41.850Z,101165.66
2022-08-28T11:51:17.591Z,101165.91
2022-08-28T11:54:18.210Z,101170.00
2022-08-28T11:57:02.760Z,101161.38
2022-08-28T12:00:00.024Z,101163.41
2022-08-28T12:02:32.745Z,101166.00
2022-08-28T12:04:59.620Z,101164.84
2022-08-28T12:07:38.632Z,101160.69
2022-08-28T12:10:20.691Z,101158.72
2022-08-28T12:12:47.378Z,101152.72
2022-08-28T12:15:38.364Z,101157.84
2022-08-28T12:18:11.046Z,101154.88
2022-08-28T12:20:59.722Z,101150.91
2022-08-28T12:23:43.053Z,101147.97
2022-08-28T12:26:22.517Z,101151.03
2022-08-28T12:29:15.367Z,101147.59
2022-08-28T12:32:11.272Z,101151.78
2022-08-28T12:34:43.957Z,101137.06
2022-08-28T12:37:29.289Z,101134.25
2022-08-28T12:40:02.611Z,101145.06
2022-08-28T12:42:32.487Z,101137.38
2022-08-28T12:45:06.745Z,101144.97
2022-08-28T12:47:35.660Z,101132.78
2022-08-28T12:50:25.286Z,101141.72
2022-08-28T12:52:55.786Z,101150.41
2022-08-28T12:55:24.584Z,101142.66
2022-08-28T12:57:52.174Z,101137.69
2022-08-28T13:00:23.051Z,101143.63
2022-08-28T13:02:53.311Z,101140.47
2022-08-28T13:05:30.449Z,101138.56
2022-08-28T13:08:00.233Z,101137.59
2022-08-28T13:10:31.209Z,101140.69
2022-08-28T13:13:24.711Z,101135.06
2022-08-28T13:16:01.326Z,101142.00
2022-08-28T13:18:49.675Z,101131.16
2022-08-28T13:21:32.801Z,101127.53
2022-08-28T13:24:35.345Z,101121.31
2022-08-28T13:27:14.350Z,101113.69
2022-08-28T13:30:19.898Z,101122.06
2022-08-28T13:33:02.333Z,101119.31
2022-08-28T13:35:33.922Z,101117.38
2022-08-28T13:38:08.352Z,101121.94
2022-08-28T13:41:03.910Z,101117.59
2022-08-28T13:43:44.344Z,101125.38
2022-08-28T13:46:11.009Z,101124.63
2022-08-28T13:48:37.678Z,101129.09
2022-08-28T13:51:11.592Z,101120.88
2022-08-28T13:53:41.229Z,101118.16
2022-08-28T13:56:07.924Z,101112.94
2022-08-28T13:58:34.857Z,101112.44
2022-08-28T14:01:02.107Z,101106.41
2022-08-28T14:03:38.854Z,101108.66
2022-08-28T14:06:11.317Z,101104.25
2022-08-28T14:08:39.742Z,101109.16
2022-08-28T14:11:07.270Z,101102.47
2022-08-28T14:13:34.126Z,101093.66
2022-08-28T14:16:05.286Z,101107.75
2022-08-28T14:18:32.302Z,101100.63
2022-08-28T14:20:59.101Z,101097.28
2022-08-28T14:23:25.819Z,101102.91
2022-08-28T14:25:52.411Z,101095.09
2022-08-28T14:28:19.218Z,101097.91
2022-08-28T14:30:51.417Z,101097.28
2022-08-28T14:33:20.559Z,101100.00
2022-08-28T14:35:49.017Z,101096.03
2022-08-28T14:38:16.708Z,101090.50
2022-08-28T14:40:44.370Z,101086.81
2022-08-28T14:43:13.437Z,101088.34
2022-08-28T14:45:47.885Z,101089.25
2022-08-28T14:48:17.493Z,101091.97
2022-08-28T14:50:46.960Z,101090.88
2022-08-28T14:53:14.492Z,101093.03
2022-08-28T14:55:43.987Z,101085.13
2022-08-28T14:58:11.042Z,101088.50
2022-08-28T15:00:39.680Z,101092.44
2022-08-28T15:03:06.700Z,101082.94
2022-08-28T15:05:33.996Z,101088.25
2022-08-28T15:08:00.760Z,101080.13
2022-08-28T15:10:27.346Z,101082.53
2022-08-28T15:12:54.187Z,101087.00
2022-08-28T15:15:22.418Z,101088.63
2022-08-28T15:17:49.045Z,101086.28
2022-08-28T15:20:15.780Z,101081.81
2022-08-28T15:22:42.896Z,101086.34
2022-08-28T15:25:09.664Z,101085.50
2022-08-28T15:27:36.588Z,101089.16
2022-08-28T15:30:04.820Z,101090.16
2022-08-28T15:32:32.206Z,101088.41
2022-08-28T15:34:58.820Z,101080.44
2022-08-28T15:37:25.675Z,101091.22
2022-08-28T15:40:11.125Z,101082.50
2022-08-28T15:42:37.884Z,101084.13
2022-08-28T15:45:04.900Z,101085.31
2022-08-28T15:47:31.667Z,101084.78
2022-08-28T15:49:58.275Z,101082.16
2022-08-28T15:52:25.070Z,101081.91
2022-08-28T15:54:52.692Z,101079.22
2022-08-28T15:57:19.611Z,101080.91
2022-08-28T15:59:49.970Z,101084.59
2022-08-28T16:02:20.707Z,101086.25
2022-08-28T16:04:47.644Z,101084.78
2022-08-28T16:07:14.328Z,101082.81
2022-08-28T16:09:41.145Z,101072.09
2022-08-28T16:12:07.826Z,101079.66
2022-08-28T16:14:34.548Z,101080.19
2022-08-28T16:17:05.944Z,101072.41
2022-08-28T16:19:41.639Z,101080.91
2022-08-28T16:22:10.047Z,101077.03
2022-08-28T16:24:37.626Z,101083.25
2022-08-28T16:27:06.188Z,101087.25
2022-08-28T16:29:35.341Z,101081.06
2022-08-28T16:32:04.160Z,101083.91
2022-08-28T16:34:32.680Z,101083.97
2022-08-28T16:37:00.037Z,101078.38
2022-08-28T16:39:27.099Z,101089.09
2022-08-28T16:41:53.768Z,101085.56
2022-08-28T16:44:22.804Z,101084.47
2022-08-28T16:46:50.175Z,101083.91
2022-08-28T16:49:16.927Z,101094.88
2022-08-28T16:51:43.571Z,101086.69
2022-08-28T16:54:10.747Z,101087.88
2022-08-28T16:56:37.523Z,101094.88
2022-08-28T16:59:04.404Z,101089.53
2022-08-28T17:01:37.594Z,101087.66
2022-08-28T17:04:07.607Z,101089.38
2022-08-28T17:06:35.406Z,101092.19
2022-08-28T17:09:02.055Z,101088.53
2022-08-28T17:11:29.267Z,101088.53
2022-08-28T17:13:57.047Z,101087.38
2022-08-28T17:16:25.485Z,101091.28
2022-08-28T17:18:53.041Z,101084.75
2022-08-28T17:21:40.736Z,101090.84
2022-08-28T17:24:09.592Z,101087.75
2022-08-28T17:26:36.312Z,101082.69
2022-08-28T17:29:03.693Z,101093.38
2022-08-28T17:31:30.366Z,101085.44
2022-08-28T17:33:57.565Z,101095.59
2022-08-28T17:36:33.294Z,101087.94
2022-08-28T17:39:08.219Z,101096.00
2022-08-28T17:41:35.487Z,101093.19
2022-08-28T17:44:02.727Z,101097.75
2022-08-28T17:46:32.785Z,101093.78
2022-08-28T17:49:03.135Z,101099.13
2022-08-28T17:51:41.985Z,101096.00
2022-08-28T17:54:17.673Z,101094.47
2022-08-28T17:56:44.851Z,101107.41
2022-08-28T17:59:12.128Z,101106.47
2022-08-28T18:01:39.795Z,101104.22
2022-08-28T18:04:06.475Z,101113.88
2022-08-28T18:06:33.517Z,101112.72
2022-08-28T18:09:00.555Z,101120.28
2022-08-28T18:11:28.436Z,101116.94
2022-08-28T18:13:55.178Z,101115.84
2022-08-28T18:16:22.076Z,101110.78
2022-08-28T18:18:48.898Z,101128.50
2022-08-28T18:21:15.616Z,101122.91
2022-08-28T18:23:42.321Z,101120.78
2022-08-28T18:26:09.144Z,101128.69
2022-08-28T18:28:36.343Z,101130.09
2022-08-28T18:31:06.084Z,101126.44
2022-08-28T18:33:33.740Z,101128.56
2022-08-28T18:36:00.600Z,101133.25
2022-08-28T18:38:28.453Z,101145.19
2022-08-28T18:40:56.191Z,101148.34
2022-08-28T18:43:23.942Z,101147.50
2022-08-28T18:45:51.290Z,101154.16
2022-08-28T18:48:19.168Z,101155.19
2022-08-28T18:50:47.363Z,101158.59
2022-08-28T18:53:15.728Z,101155.31
2022-08-28T18:55:42.413Z,101153.84
2022-08-28T18:58:11.111Z,101152.16
2022-08-28T19:00:42.611Z,101157.38
2022-08-28T19:03:09.711Z,101159.00
2022-08-28T19:05:37.805Z,101160.94
2022-08-28T19:08:05.436Z,101176.47
2022-08-28T19:10:34.641Z,101173.41
2022-08-28T19:13:02.591Z,101175.84
2022-08-28T19:15:31.833Z,101179.09
2022-08-28T19:18:00.342Z,101181.72
2022-08-28T19:20:28.013Z,101184.34
2022-08-28T19:22:56.189Z,101187.91
2022-08-28T19:25:28.399Z,101194.94
2022-08-28T19:28:01.267Z,101189.44
2022-08-28T19:30:32.704Z,101195.97
2022-08-28T19:33:01.045Z,101194.03
2022-08-28T19:35:28.131Z,101195.97
2022-08-28T19:37:55.563Z,101195.63
2022-08-28T19:40:23.039Z,101198.09
2022-08-28T19:42:50.150Z,101198.53
2022-08-28T19:45:17.816Z,101202.00
2022-08-28T19:47:45.316Z,101201.75
2022-08-28T19:50:13.899Z,101206.19
2022-08-28T19:52:41.375Z,101212.13
2022-08-28T19:55:08.758Z,101208.19
2022-08-28T19:57:35.661Z,101225.16
2022-08-28T20:00:04.553Z,101218.28
2022-08-28T20:02:31.415Z,101220.13
2022-08-28T20:04:58.801Z,101218.97
2022-08-28T20:07:25.567Z,101223.66
2022-08-28T20:09:52.272Z,101227.88
2022-08-28T20:12:19.739Z,101228.81
2022-08-28T20:14:46.729Z,101226.19
2022-08-28T20:17:13.999Z,101224.63
2022-08-28T20:19:41.181Z,101231.56
2022-08-28T20:22:07.934Z,101225.16
2022-08-28T20:24:34.888Z,101229.69
2022-08-28T20:27:01.597Z,101220.22
2022-08-28T20:29:28.549Z,101226.44
2022-08-28T20:31:55.216Z,101224.41
2022-08-28T20:34:22.113Z,101231.19
2022-08-28T20:36:49.122Z,101227.22
2022-08-28T20:39:16.370Z,101231.44
2022-08-28T20:41:44.261Z,101230.25
2022-08-28T20:44:13.395Z,101239.03
2022-08-28T20:46:42.215Z,101247.97
2022-08-28T20:49:14.283Z,101244.09
2022-08-28T20:51:52.701Z,101246.56
2022-08-28T20:54:21.768Z,101252.56
2022-08-28T20:56:50.583Z,101249.88
2022-08-28T20:59:18.379Z,101245.19
2022-08-28T21:01:45.154Z,101241.22
2022-08-28T21:04:11.824Z,101244.69
2022-08-28T21:06:38.415Z,101256.59
2022-08-28T21:09:05.096Z,101250.91
2022-08-28T21:11:31.718Z,101250.91
2022-08-28T21:13:58.421Z,101248.97
2022-08-28T21:16:26.024Z,101258.34
2022-08-28T21:19:14.458Z,101255.91
2022-08-28T21:21:40.398Z,101248.31
2022-08-28T21:24:09.537Z,101257.78
2022-08-28T21:26:39.763Z,101261.16
2022-08-28T21:29:10.643Z,101253.41
2022-08-28T21:31:42.073Z,101261.16
2022-08-28T21:34:09.662Z,101261.53
2022-08-28T21:36:37.997Z,101267.44
2022-08-28T21:39:05.772Z,101264.41
2022-08-28T21:41:32.429Z,101271.53
2022-08-28T21:43:59.164Z,101281.38
2022-08-28T21:46:25.909Z,101276.34
2022-08-28T21:48:53.333Z,101275.91
2022-08-28T21:51:20.393Z,101275.91
2022-08-28T21:53:47.415Z,101272.03
2022-08-28T21:56:26.721Z,101274.97
2022-08-28T21:58:55.552Z,101271.66
2022-08-28T22:01:25.685Z,101275.06
2022-08-28T22:03:54.344Z,101279.47
2022-08-28T22:06:23.087Z,101273.78
2022-08-28T22:08:51.304Z,101275.72
2022-08-28T22:11:24.771Z,101278.22
2022-08-28T22:13:53.136Z,101288.69
2022-08-28T22:16:20.654Z,101283.97
2022-08-28T22:18:47.382Z,101285.16
2022-08-28T22:21:37.406Z,101294.81
2022-08-28T22:24:04.710Z,101289.72
2022-08-28T22:26:31.538Z,101288.41
2022-08-28T22:28:58.236Z,101279.41
2022-08-28T22:31:25.038Z,101275.41
2022-08-28T22:33:52.095Z,101286.75
2022-08-28T22:36:19.941Z,101288.03
2022-08-28T22:38:53.047Z,101284.91
2022-08-28T22:41:20.551Z,101286.25
2022-08-28T22:43:49.726Z,101283.84
2022-08-28T22:46:18.621Z,101285.31
2022-08-28T22:48:45.886Z,101275.03
2022-08-28T22:51:15.073Z,101273.38
2022-08-28T22:53:43.212Z,101277.88
2022-08-28T22:56:10.998Z,101273.41
2022-08-28T22:58:38.469Z,101273.25
2022-08-28T23:01:09.121Z,101268.00
2022-08-28T23:03:35.951Z,101263.50
2022-08-28T23:06:02.948Z,101270.53
2022-08-28T23:08:33.744Z,101275.50
2022-08-28T23:11:01.742Z,101276.94
2022-08-28T23:13:29.907Z,101273.25
2022-08-28T23:15:56.864Z,101274.16
2022-08-28T23:18:23.564Z,101277.09
2022-08-28T23:20:50.603Z,101274.16
2022-08-28T23:23:19.242Z,101275.56
2022-08-28T23:25:46.225Z,101266.66
2022-08-28T23:28:13.214Z,101263.19
2022-08-28T23:30:41.226Z,101268.13
2022-08-28T23:33:18.570Z,101266.13
2022-08-28T23:35:49.946Z,101254.81
2022-08-28T23:38:16.561Z,101254.59
2022-08-28T23:40:43.741Z,101251.41
2022-08-28T23:43:10.947Z,101246.53
2022-08-28T23:45:39.885Z,101256.22
2022-08-28T23:48:06.649Z,101249.75
2022-08-28T23:50:34.686Z,101255.13
2022-08-28T23:53:02.346Z,101246.69
2022-08-28T23:55:29.223Z,101246.44
2022-08-28T23:57:56.314Z,101249.63
